Time;durP1;ratioP1;P1;durP2;ratioP2;P2;SDS_P1;SDS_P2;PMS_P1;PMS_P2;Temp;Humidity;BMP_temperature;BMP_pressure;BME280_temperature;BME280_humidity;BME280_pressure;Samples;Min_cycle;Max_cycle;Signal;HPM_P1;HPM_P2
2022/05/23 00:00:26;;;;;;;3.77;2.97;;;12.30;97.30;;;;;;4954277;28;20427;-86
2022/05/23 00:02:52;;;;;;;5.33;2.93;;;12.20;97.30;;;;;;4955912;29;20892;-86
2022/05/23 00:05:18;;;;;;;4.90;2.90;;;12.20;97.30;;;;;;4953481;29;20493;-85
2022/05/23 00:07:47;;;;;;;4.67;2.77;;;12.10;97.30;;;;;;4954184;28;20218;-86
2022/05/23 00:10:16;;;;;;;3.90;3.00;;;12.10;97.30;;;;;;4954582;28;20187;-86
2022/05/23 00:12:42;;;;;;;6.10;3.00;;;12.10;97.30;;;;;;4956473;28;20433;-85
2022/05/23 00:15:10;;;;;;;4.77;3.37;;;12.10;97.30;;;;;;4956194;29;20600;-86
2022/05/23 00:17:36;;;;;;;3.03;2.80;;;12.10;97.30;;;;;;4956157;28;20419;-86
2022/05/23 00:20:05;;;;;;;4.60;3.13;;;12.10;97.30;;;;;;4956528;29;21048;-86
2022/05/23 00:22:31;;;;;;;3.47;3.20;;;12.10;97.30;;;;;;4956804;28;20609;-86
2022/05/23 00:24:58;;;;;;;5.23;3.23;;;12.10;97.30;;;;;;4956184;29;20435;-86
2022/05/23 00:27:23;;;;;;;3.27;3.07;;;12.00;97.30;;;;;;4956166;29;20439;-85
2022/05/23 00:29:51;;;;;;;6.37;3.00;;;12.00;97.30;;;;;;4956230;29;20489;-86
2022/05/23 00:35:19;;;;;;;6.20;3.00;;;12.00;97.30;;;;;;4957150;29;20474;-88
2022/05/23 00:37:46;;;;;;;3.60;2.80;;;11.90;97.30;;;;;;4955340;28;20474;-88
2022/05/23 00:40:41;;;;;;;5.37;3.40;;;11.90;97.30;;;;;;4955580;29;20429;-88
2022/05/23 00:43:17;;;;;;;7.13;3.30;;;11.90;97.30;;;;;;4953649;28;20434;-88
2022/05/23 00:45:46;;;;;;;6.33;3.97;;;11.80;97.30;;;;;;4953011;28;20477;-89
2022/05/23 00:48:13;;;;;;;3.73;2.97;;;11.80;97.30;;;;;;4952779;29;20478;-89
2022/05/23 00:50:43;;;;;;;7.30;2.87;;;11.80;97.30;;;;;;4952819;29;20442;-89
2022/05/23 00:53:09;;;;;;;4.53;3.20;;;11.70;97.30;;;;;;4953161;28;20928;-88
2022/05/23 00:55:44;;;;;;;4.83;3.20;;;11.70;97.30;;;;;;4952104;29;20513;-88
2022/05/23 00:58:28;;;;;;;5.23;2.83;;;11.70;97.30;;;;;;4952717;29;20796;-88
2022/05/23 01:00:59;;;;;;;4.90;2.63;;;11.60;97.30;;;;;;4952752;29;20419;-88
2022/05/23 01:03:25;;;;;;;4.90;2.67;;;11.60;97.30;;;;;;4952864;29;20488;-88
2022/05/23 01:05:54;;;;;;;5.50;3.20;;;11.50;97.30;;;;;;4952807;29;20482;-88
2022/05/23 01:08:21;;;;;;;8.60;2.97;;;11.50;97.30;;;;;;4953330;28;20190;-88
2022/05/23 01:10:47;;;;;;;3.30;2.57;;;11.50;97.30;;;;;;4952626;28;20423;-88
2022/05/23 01:13:14;;;;;;;3.87;3.00;;;11.50;97.30;;;;;;4952925;29;20953;-88
2022/05/23 01:15:47;;;;;;;4.10;2.73;;;11.40;97.30;;;;;;4952481;29;20854;-88
2022/05/23 01:18:15;;;;;;;5.50;3.27;;;11.40;97.30;;;;;;4952510;28;20952;-89
2022/05/23 01:20:41;;;;;;;2.70;2.43;;;11.30;97.30;;;;;;4952417;29;20427;-89
2022/05/23 01:23:25;;;;;;;3.37;2.70;;;11.30;97.30;;;;;;4952285;28;20450;-88
2022/05/23 01:25:50;;;;;;;5.23;3.10;;;11.20;97.30;;;;;;4952210;28;20546;-88
2022/05/23 01:28:17;;;;;;;4.30;3.00;;;11.20;97.30;;;;;;4952347;29;20565;-88
2022/05/23 01:30:45;;;;;;;4.47;3.13;;;11.20;97.30;;;;;;4951590;29;20175;-88
2022/05/23 01:33:11;;;;;;;7.83;3.57;;;11.20;97.30;;;;;;4951886;29;20426;-88
2022/05/23 01:35:37;;;;;;;4.53;3.17;;;11.10;97.30;;;;;;4952037;28;20474;-88
2022/05/23 01:38:03;;;;;;;4.07;2.80;;;11.10;97.30;;;;;;4937232;28;20981;-88
2022/05/23 01:40:29;;;;;;;6.13;3.30;;;11.10;97.30;;;;;;4916868;29;20664;-88
2022/05/23 01:42:55;;;;;;;3.83;2.97;;;11.10;97.30;;;;;;4916772;29;20415;-88
2022/05/23 01:45:32;;;;;;;4.83;3.40;;;11.00;97.30;;;;;;4917145;29;20444;-88
2022/05/23 01:47:58;;;;;;;3.93;2.80;;;11.00;97.30;;;;;;4916880;29;20258;-88
2022/05/23 01:50:25;;;;;;;4.00;3.10;;;11.00;97.30;;;;;;4916961;29;20712;-88
2022/05/23 01:52:52;;;;;;;4.73;2.80;;;10.90;97.30;;;;;;4916602;29;20764;-88
2022/05/23 01:55:18;;;;;;;3.93;3.07;;;10.90;97.30;;;;;;4916678;29;20470;-89
2022/05/23 01:57:44;;;;;;;7.73;3.87;;;10.80;97.30;;;;;;4917083;29;20941;-88
2022/05/23 02:02:55;;;;;;;3.50;2.97;;;10.80;97.30;;;;;;4934148;29;20218;-88
2022/05/23 02:05:21;;;;;;;5.20;3.07;;;10.80;97.30;;;;;;4916772;29;20731;-88
2022/05/23 02:07:46;;;;;;;5.83;2.83;;;10.80;97.30;;;;;;4916149;29;20666;-89
2022/05/23 02:10:13;;;;;;;4.00;2.67;;;10.70;97.30;;;;;;4916746;29;20455;-88
2022/05/23 02:12:39;;;;;;;5.23;3.00;;;10.70;97.30;;;;;;4915897;29;20179;-88
2022/05/23 02:15:06;;;;;;;3.70;2.80;;;10.70;97.30;;;;;;4916351;29;20455;-88
2022/05/23 02:17:32;;;;;;;4.03;3.13;;;10.60;97.30;;;;;;4916024;29;20418;-88
2022/05/23 02:19:58;;;;;;;3.50;3.10;;;10.60;97.30;;;;;;4932335;29;21021;-88
2022/05/23 02:22:24;;;;;;;4.80;2.80;;;10.60;97.30;;;;;;4916459;29;20504;-88
2022/05/23 02:24:50;;;;;;;5.40;3.73;;;10.60;97.30;;;;;;4916653;29;20262;-88
2022/05/23 02:27:15;;;;;;;6.03;3.43;;;10.50;97.30;;;;;;4915766;29;20311;-88
2022/05/23 02:29:41;;;;;;;4.10;3.00;;;10.50;97.30;;;;;;4916184;29;20184;-88
2022/05/23 02:32:08;;;;;;;4.60;2.90;;;10.50;97.30;;;;;;4916005;29;20669;-88
2022/05/23 02:34:34;;;;;;;4.00;2.77;;;10.50;97.30;;;;;;4916146;29;20885;-88
2022/05/23 02:37:00;;;;;;;5.87;3.20;;;10.50;97.30;;;;;;4925734;28;20474;-88
2022/05/23 02:39:26;;;;;;;7.03;3.60;;;10.50;97.30;;;;;;4950896;28;20427;-88
2022/05/23 02:41:52;;;;;;;4.00;3.17;;;10.50;97.30;;;;;;4952449;28;20834;-88
2022/05/23 02:44:18;;;;;;;5.53;3.53;;;10.50;97.30;;;;;;4954853;29;20179;-88
2022/05/23 02:46:44;;;;;;;6.13;3.13;;;10.40;97.30;;;;;;4954924;28;20434;-88
2022/05/23 02:49:11;;;;;;;5.43;3.60;;;10.50;97.30;;;;;;4956367;29;20187;-88
2022/05/23 02:51:37;;;;;;;5.10;3.57;;;10.40;97.30;;;;;;4955148;28;20226;-88
2022/05/23 02:54:04;;;;;;;7.40;3.80;;;10.40;97.30;;;;;;4954573;29;20419;-88
2022/05/23 02:56:31;;;;;;;5.20;3.10;;;10.40;97.30;;;;;;4954283;29;20524;-88
2022/05/23 02:58:57;;;;;;;4.90;3.67;;;10.30;97.30;;;;;;4954302;28;20584;-88
2022/05/23 03:01:23;;;;;;;5.00;3.33;;;10.30;97.30;;;;;;4954559;28;20448;-88
2022/05/23 03:03:48;;;;;;;3.93;3.40;;;10.30;97.30;;;;;;4954306;28;20278;-88
2022/05/23 03:06:14;;;;;;;8.30;3.47;;;10.30;97.30;;;;;;4954224;28;20446;-88
2022/05/23 03:08:40;;;;;;;6.63;3.67;;;10.20;97.30;;;;;;4954287;28;20683;-88
2022/05/23 03:11:08;;;;;;;6.53;3.70;;;10.20;97.30;;;;;;4952934;28;20637;-88
2022/05/23 03:13:34;;;;;;;4.07;3.43;;;10.20;97.30;;;;;;4943398;29;20517;-88
2022/05/23 03:16:01;;;;;;;8.20;3.33;;;10.10;97.30;;;;;;4943670;28;20467;-88
2022/05/23 03:18:28;;;;;;;5.33;3.43;;;10.10;97.30;;;;;;4947718;29;20487;-88
2022/05/23 03:21:09;;;;;;;5.47;3.50;;;10.10;97.30;;;;;;4946363;29;20929;-88
2022/05/23 03:29:10;;;;;;;7.57;3.47;;;10.10;97.30;;;;;;4951105;29;20502;-88
2022/05/23 03:31:36;;;;;;;5.93;3.60;;;10.10;97.30;;;;;;4945862;29;20447;-88
2022/05/23 03:34:02;;;;;;;7.37;3.50;;;10.10;97.30;;;;;;4959995;28;20431;-88
2022/05/23 03:36:27;;;;;;;10.07;3.70;;;10.10;97.30;;;;;;4944277;29;21044;-88
2022/05/23 03:38:53;;;;;;;5.00;3.70;;;10.10;97.30;;;;;;4927038;29;20171;-87
2022/05/23 03:41:19;;;;;;;6.10;4.20;;;10.10;97.30;;;;;;4927695;29;20260;-87
2022/05/23 03:43:44;;;;;;;5.90;3.50;;;10.10;97.30;;;;;;4945123;28;20488;-88
2022/05/23 03:46:12;;;;;;;5.93;4.00;;;10.10;97.30;;;;;;4928988;29;20525;-87
2022/05/23 03:48:41;;;;;;;7.10;4.40;;;10.10;97.30;;;;;;4926357;29;20228;-87
2022/05/23 03:51:08;;;;;;;4.90;4.20;;;10.10;97.30;;;;;;4945962;29;20418;-87
2022/05/23 03:53:36;;;;;;;4.83;3.73;;;10.20;97.30;;;;;;4928454;28;20423;-87
2022/05/23 03:56:03;;;;;;;7.63;4.83;;;10.20;97.30;;;;;;4929430;29;20462;-87
2022/05/23 03:58:30;;;;;;;6.50;4.43;;;10.20;97.30;;;;;;4929553;29;20437;-87
2022/05/23 04:01:07;;;;;;;9.73;4.70;;;10.20;97.30;;;;;;4926744;29;20423;-87
2022/05/23 04:03:35;;;;;;;10.40;4.40;;;10.30;97.30;;;;;;4944661;29;20423;-87
2022/05/23 04:06:04;;;;;;;6.07;4.33;;;10.30;97.30;;;;;;4961754;28;20446;-87
2022/05/23 04:08:32;;;;;;;6.77;4.30;;;10.40;97.30;;;;;;4949327;29;20936;-92
2022/05/23 04:10:57;;;;;;;10.20;5.13;;;10.40;97.30;;;;;;4958196;29;20703;-93
2022/05/23 04:13:24;;;;;;;6.13;4.30;;;10.40;97.30;;;;;;4949813;29;20427;-92
2022/05/23 04:15:50;;;;;;;5.20;4.20;;;10.50;97.30;;;;;;4935522;29;20207;-92
2022/05/23 04:18:17;;;;;;;7.43;5.33;;;10.60;97.30;;;;;;4930884;29;20453;-92
2022/05/23 04:20:44;;;;;;;8.20;4.70;;;10.60;97.30;;;;;;4926469;29;20419;-93
2022/05/23 04:23:10;;;;;;;7.13;4.80;;;10.70;97.30;;;;;;4932164;29;20495;-93
2022/05/23 04:25:43;;;;;;;9.00;5.63;;;10.80;97.30;;;;;;4921461;29;20455;-92
2022/05/23 04:28:11;;;;;;;9.67;4.40;;;10.80;97.30;;;;;;4922210;29;20420;-92
2022/05/23 04:30:37;;;;;;;7.67;5.27;;;10.90;97.30;;;;;;4939114;29;20423;-92
2022/05/23 04:35:50;;;;;;;7.10;4.53;;;11.10;97.30;;;;;;4955807;29;20241;-93
2022/05/23 04:38:16;;;;;;;8.23;4.77;;;11.20;97.30;;;;;;4940828;29;20471;-92
2022/05/23 04:40:42;;;;;;;8.00;5.17;;;11.20;97.30;;;;;;4927301;29;20430;-93
2022/05/23 04:43:08;;;;;;;6.80;4.37;;;11.30;97.30;;;;;;4958664;29;20438;-92
2022/05/23 04:45:33;;;;;;;10.37;4.80;;;11.40;97.30;;;;;;4956651;29;20497;-92
2022/05/23 04:50:43;;;;;;;11.00;4.40;;;11.50;97.30;;;;;;4958148;28;20190;-93
2022/05/23 04:53:09;;;;;;;8.80;5.37;;;11.60;97.30;;;;;;4956979;28;20788;-92
2022/05/23 04:55:36;;;;;;;7.57;4.60;;;11.60;97.30;;;;;;4956505;29;20509;-92
2022/05/23 04:58:03;;;;;;;10.63;4.80;;;11.70;97.30;;;;;;4958277;28;20199;-93
2022/05/23 05:00:29;;;;;;;7.83;4.60;;;11.80;97.30;;;;;;4960319;28;20486;-93
2022/05/23 05:02:59;;;;;;;8.13;4.07;;;11.80;97.30;;;;;;4958085;29;20446;-93
2022/05/23 05:05:26;;;;;;;4.47;3.83;;;11.90;97.30;;;;;;4956678;28;20529;-93
2022/05/23 05:07:52;;;;;;;5.03;3.80;;;12.00;97.30;;;;;;4957000;28;20422;-93
2022/05/23 05:10:18;;;;;;;8.20;4.53;;;12.00;97.30;;;;;;4955964;28;20522;-92
2022/05/23 05:12:44;;;;;;;12.77;4.80;;;12.10;97.30;;;;;;4955469;28;20191;-93
2022/05/23 05:15:10;;;;;;;9.53;4.10;;;12.20;97.30;;;;;;4955269;29;20215;-93
2022/05/23 05:17:35;;;;;;;5.97;4.20;;;12.30;97.30;;;;;;4956219;29;20869;-93
2022/05/23 05:20:01;;;;;;;8.03;4.00;;;12.40;97.30;;;;;;4955523;28;20183;-93
2022/05/23 05:22:27;;;;;;;8.83;4.10;;;12.50;97.30;;;;;;4956290;28;20178;-93
2022/05/23 05:24:52;;;;;;;4.63;3.73;;;12.60;97.30;;;;;;4956540;29;20231;-93
2022/05/23 05:27:18;;;;;;;4.40;3.67;;;12.70;97.30;;;;;;4956752;29;20211;-93
2022/05/23 05:29:43;;;;;;;7.00;4.30;;;12.80;97.30;;;;;;4957138;29;20175;-93
2022/05/23 05:32:36;;;;;;;5.50;3.53;;;12.90;97.30;;;;;;4956842;29;20196;-94
2022/05/23 05:35:14;;;;;;;6.60;3.53;;;13.00;97.30;;;;;;4956888;29;20203;-94
2022/05/23 05:37:48;;;;;;;4.30;3.47;;;13.10;97.30;;;;;;4944775;29;20825;-93
2022/05/23 05:40:17;;;;;;;6.20;3.87;;;13.20;97.30;;;;;;4921664;29;20446;-93
2022/05/23 05:42:47;;;;;;;6.87;3.77;;;13.30;97.30;;;;;;4920741;29;20419;-93
2022/05/23 05:45:18;;;;;;;8.27;3.50;;;13.40;97.30;;;;;;4936595;29;20479;-93
2022/05/23 05:47:45;;;;;;;7.53;3.97;;;13.40;97.30;;;;;;4922274;29;20913;-92
2022/05/23 05:50:28;;;;;;;4.70;3.13;;;13.50;97.30;;;;;;4921308;29;20427;-93
2022/05/23 05:52:58;;;;;;;4.50;2.90;;;13.50;97.30;;;;;;4920978;29;20482;-91
2022/05/23 05:55:24;;;;;;;7.47;4.30;;;13.60;97.30;;;;;;4919490;29;20467;-90
2022/05/23 05:57:50;;;;;;;5.70;3.53;;;13.70;97.30;;;;;;4919378;29;20426;-89
2022/05/23 06:00:16;;;;;;;5.97;3.87;;;13.70;97.30;;;;;;4919501;29;20219;-88
2022/05/23 06:02:42;;;;;;;5.47;3.03;;;13.80;97.30;;;;;;4920137;29;20812;-86
2022/05/23 06:05:08;;;;;;;4.80;3.33;;;13.80;97.30;;;;;;4920181;29;20423;-87
2022/05/23 06:13:02;;;;;;;6.50;3.50;;;14.00;97.30;;;;;;4934988;29;20944;-87
2022/05/23 06:15:28;;;;;;;4.07;2.97;;;14.00;97.30;;;;;;4917418;29;20463;-87
2022/05/23 06:17:54;;;;;;;5.80;2.90;;;14.10;97.30;;;;;;4917453;29;20555;-87
2022/05/23 06:20:20;;;;;;;4.20;3.43;;;14.10;97.30;;;;;;4917769;29;20179;-86
2022/05/23 06:22:46;;;;;;;4.10;3.23;;;14.20;97.30;;;;;;4917210;29;20176;-87
2022/05/23 06:25:14;;;;;;;6.10;2.97;;;14.30;97.30;;;;;;4917095;29;20424;-87
2022/05/23 06:27:40;;;;;;;7.00;3.50;;;14.30;97.30;;;;;;4935287;29;20426;-86
2022/05/23 06:30:09;;;;;;;7.73;3.10;;;14.40;97.30;;;;;;4919647;29;20411;-87
2022/05/23 06:32:35;;;;;;;10.07;2.90;;;14.50;97.30;;;;;;4935321;29;20424;-88
2022/05/23 06:35:01;;;;;;;5.87;2.60;;;14.60;97.30;;;;;;4918195;29;20843;-87
2022/05/23 06:37:26;;;;;;;4.83;3.30;;;14.70;97.30;;;;;;4924027;29;20236;-87
2022/05/23 06:39:52;;;;;;;4.77;3.40;;;14.80;97.30;;;;;;4948545;29;20609;-87
2022/05/23 06:42:18;;;;;;;4.70;3.20;;;14.90;97.30;;;;;;4933495;29;20239;-88
2022/05/23 06:44:44;;;;;;;5.90;3.70;;;14.90;97.30;;;;;;4933004;29;20180;-87
2022/05/23 06:47:10;;;;;;;6.60;2.90;;;15.00;97.30;;;;;;4933888;29;20460;-88
2022/05/23 06:49:36;;;;;;;12.27;3.37;;;15.10;97.30;;;;;;4933156;29;20180;-88
2022/05/23 06:52:01;;;;;;;4.63;2.67;;;15.10;97.30;;;;;;4935152;29;20475;-87
2022/05/23 06:54:27;;;;;;;6.40;3.57;;;15.20;97.30;;;;;;4933151;29;20188;-87
2022/05/23 06:56:53;;;;;;;5.50;3.13;;;15.20;97.30;;;;;;4933123;29;20291;-87
2022/05/23 06:59:19;;;;;;;6.80;3.07;;;15.30;97.30;;;;;;4933173;29;20180;-88
2022/05/23 07:01:46;;;;;;;8.03;2.97;;;15.30;97.30;;;;;;4934729;29;20211;-88
2022/05/23 07:04:12;;;;;;;4.93;3.07;;;15.40;97.30;;;;;;4935991;29;20415;-87
2022/05/23 07:12:23;;;;;;;4.27;3.10;;;15.60;97.30;;;;;;4953643;29;20469;-88
2022/05/23 07:14:50;;;;;;;4.10;3.00;;;15.60;97.30;;;;;;4967648;28;20462;-88
2022/05/23 07:17:16;;;;;;;5.20;3.13;;;15.70;97.30;;;;;;4968076;28;20439;-89
2022/05/23 07:19:42;;;;;;;5.87;3.50;;;15.80;97.30;;;;;;4967590;28;20431;-89
2022/05/23 07:22:08;;;;;;;3.90;2.93;;;15.90;97.30;;;;;;4967515;28;20175;-89
2022/05/23 07:24:34;;;;;;;5.37;2.73;;;15.90;97.30;;;;;;4967772;28;20203;-89
2022/05/23 07:27:01;;;;;;;3.47;2.40;;;16.00;97.30;;;;;;4968047;28;20447;-88
2022/05/23 07:29:26;;;;;;;5.97;3.07;;;16.10;97.30;;;;;;4955919;29;20802;-88
2022/05/23 07:31:53;;;;;;;5.43;2.80;;;16.20;97.30;;;;;;4945000;29;20423;-88
2022/05/23 07:34:19;;;;;;;3.53;2.70;;;16.20;97.30;;;;;;4955549;29;20185;-88
2022/05/23 07:36:46;;;;;;;6.50;2.60;;;16.30;97.30;;;;;;4954102;29;20727;-88
2022/05/23 07:39:12;;;;;;;5.67;2.60;;;16.40;97.30;;;;;;4955054;29;20498;-88
2022/05/23 07:41:39;;;;;;;8.40;2.40;;;16.50;97.30;;;;;;4954162;29;20431;-88
2022/05/23 07:44:10;;;;;;;4.90;2.60;;;16.60;97.30;;;;;;4954913;29;20308;-87
2022/05/23 07:46:35;;;;;;;5.63;3.07;;;16.70;97.30;;;;;;4955158;29;20447;-89
2022/05/23 07:49:03;;;;;;;14.13;2.90;;;16.80;97.30;;;;;;4971081;28;20931;-88
2022/05/23 07:51:30;;;;;;;3.00;2.50;;;16.90;97.30;;;;;;4955084;29;20556;-88
2022/05/23 08:02:15;;;;;;;5.13;2.77;;;17.10;96.20;;;;;;4955815;29;20399;-89
2022/05/23 08:04:42;;;;;;;5.53;2.70;;;17.10;94.90;;;;;;4954179;29;20418;-89
2022/05/23 08:07:09;;;;;;;6.67;2.90;;;17.10;95.80;;;;;;4953824;28;20457;-89
2022/05/23 08:09:36;;;;;;;4.13;2.53;;;17.20;96.20;;;;;;4953957;28;20462;-89
2022/05/23 08:12:04;;;;;;;6.77;3.63;;;17.20;95.80;;;;;;4954274;29;20438;-89
2022/05/23 08:14:30;;;;;;;4.10;2.73;;;17.20;96.60;;;;;;4953824;29;20431;-89
2022/05/23 08:16:56;;;;;;;6.73;2.70;;;17.20;96.40;;;;;;4953856;29;20457;-90
2022/05/23 08:19:24;;;;;;;4.20;2.37;;;17.30;95.50;;;;;;4955843;29;20418;-90
2022/05/23 08:22:03;;;;;;;5.40;2.40;;;17.30;95.80;;;;;;4955723;29;20423;-89
2022/05/23 08:24:34;;;;;;;3.97;2.57;;;17.40;96.20;;;;;;4956302;28;20431;-90
2022/05/23 08:27:00;;;;;;;6.13;2.90;;;17.40;96.00;;;;;;4955613;29;20995;-88
2022/05/23 08:29:26;;;;;;;4.60;2.63;;;17.50;95.80;;;;;;4955860;29;20215;-90
2022/05/23 08:31:52;;;;;;;5.60;2.43;;;17.50;95.80;;;;;;4956195;29;20426;-89
2022/05/23 08:34:18;;;;;;;6.47;2.63;;;17.60;95.80;;;;;;4957070;29;20407;-90
2022/05/23 08:36:43;;;;;;;6.37;2.63;;;17.70;96.10;;;;;;4953105;29;20230;-88
2022/05/23 08:39:10;;;;;;;13.43;3.20;;;17.80;95.50;;;;;;4952764;28;20209;-90
2022/05/23 08:41:41;;;;;;;4.53;2.87;;;17.90;95.80;;;;;;4969748;28;20175;-90
2022/05/23 08:44:31;;;;;;;6.43;3.03;;;18.00;95.10;;;;;;4971632;28;20945;-89
2022/05/23 08:47:11;;;;;;;3.90;2.50;;;18.10;94.40;;;;;;4951850;29;20445;-90
2022/05/23 08:49:37;;;;;;;4.60;2.77;;;18.20;94.80;;;;;;4969128;28;20427;-90
2022/05/23 08:52:06;;;;;;;4.10;2.80;;;18.30;94.90;;;;;;4968944;28;20914;-90
2022/05/23 08:54:50;;;;;;;5.50;2.97;;;18.40;94.10;;;;;;4968903;28;20183;-89
2022/05/23 08:57:51;;;;;;;3.17;2.57;;;18.50;94.40;;;;;;4968751;28;20827;-90
2022/05/23 09:00:23;;;;;;;4.17;2.50;;;18.50;93.40;;;;;;4961291;28;20462;-91
2022/05/23 09:03:25;;;;;;;6.17;2.63;;;18.70;94.30;;;;;;4968585;28;20485;-91
2022/05/23 09:06:13;;;;;;;6.03;3.00;;;18.80;94.00;;;;;;4969110;28;20480;-90
2022/05/23 09:08:54;;;;;;;3.27;2.90;;;19.00;94.10;;;;;;4945586;28;20481;-91
2022/05/23 09:11:41;;;;;;;3.73;2.73;;;19.20;93.80;;;;;;4968892;28;20423;-90
2022/05/23 09:14:08;;;;;;;4.00;2.70;;;19.30;92.90;;;;;;4968992;28;20426;-89
2022/05/23 09:16:41;;;;;;;6.47;3.03;;;19.40;92.80;;;;;;4968577;28;20494;-90
2022/05/23 09:19:21;;;;;;;5.87;2.90;;;19.60;92.70;;;;;;4968707;28;20421;-91
2022/05/23 09:24:38;;;;;;;6.43;3.30;;;19.80;92.20;;;;;;4955898;28;20410;-90
2022/05/23 09:27:15;;;;;;;3.67;2.30;;;19.80;92.20;;;;;;4971228;28;20435;-90
2022/05/23 09:29:40;;;;;;;4.30;3.40;;;19.80;91.60;;;;;;4971056;28;21099;-89
2022/05/23 09:32:10;;;;;;;6.87;2.20;;;19.80;91.20;;;;;;4969749;28;20419;-89
2022/05/23 09:34:44;;;;;;;8.73;2.70;;;19.80;91.60;;;;;;4968516;28;20221;-91
2022/05/23 09:37:22;;;;;;;6.10;2.93;;;19.80;92.70;;;;;;4965158;28;21020;-89
2022/05/23 09:39:58;;;;;;;4.90;2.37;;;19.80;91.10;;;;;;4933391;29;20483;-89
2022/05/23 09:48:11;;;;;;;4.47;2.60;;;19.80;92.10;;;;;;4934834;29;20446;-91
2022/05/23 09:50:43;;;;;;;8.13;2.33;;;20.00;92.60;;;;;;4933053;29;20791;-90
2022/05/23 09:53:29;;;;;;;4.87;2.87;;;20.10;93.30;;;;;;4933064;29;20428;-87
2022/05/23 09:56:27;;;;;;;3.50;2.50;;;20.30;93.10;;;;;;4932990;29;20468;-88
2022/05/23 09:58:53;;;;;;;3.80;3.10;;;20.60;92.40;;;;;;4948752;28;20423;-88
2022/05/23 10:01:28;;;;;;;5.60;2.80;;;20.80;92.40;;;;;;4933150;29;20828;-88
2022/05/23 10:03:54;;;;;;;7.70;3.10;;;20.90;90.60;;;;;;4932976;29;20426;-88
2022/05/23 10:06:33;;;;;;;4.97;2.67;;;21.00;91.00;;;;;;4932679;29;20482;-89
2022/05/23 10:08:59;;;;;;;3.60;2.70;;;21.10;90.50;;;;;;4932817;29;20438;-90
2022/05/23 10:11:31;;;;;;;3.90;2.50;;;21.20;90.90;;;;;;4932662;29;20423;-91
2022/05/23 10:14:00;;;;;;;5.30;2.60;;;21.20;90.40;;;;;;4933053;29;20553;-90
2022/05/23 10:16:26;;;;;;;3.53;2.60;;;21.20;90.40;;;;;;4932654;29;20845;-91
2022/05/23 10:19:05;;;;;;;3.80;2.47;;;21.30;89.20;;;;;;4948778;28;20431;-89
2022/05/23 10:21:40;;;;;;;8.97;2.90;;;21.40;90.70;;;;;;4931966;29;20431;-90
2022/05/23 10:24:10;;;;;;;4.60;2.40;;;21.60;90.80;;;;;;4932668;29;20530;-90
2022/05/23 10:27:13;;;;;;;3.17;2.30;;;21.80;90.10;;;;;;4932799;29;20627;-89
2022/05/23 10:29:57;;;;;;;6.60;3.07;;;22.00;87.70;;;;;;4913257;29;20427;-90
2022/05/23 10:32:51;;;;;;;4.27;2.77;;;22.10;88.60;;;;;;4933460;29;20435;-90
2022/05/23 10:36:01;;;;;;;6.33;2.60;;;22.30;89.90;;;;;;4932443;29;20451;-89
2022/05/23 10:44:14;;;;;;;4.60;2.13;;;22.60;86.70;;;;;;4933285;29;20399;-90
2022/05/23 10:46:43;;;;;;;4.93;2.50;;;22.70;87.70;;;;;;4948305;29;20454;-89
2022/05/23 10:49:27;;;;;;;7.23;2.60;;;22.80;85.20;;;;;;4932221;29;20419;-89
2022/05/23 10:52:18;;;;;;;3.30;2.20;;;22.90;85.10;;;;;;4943936;29;20429;-89
2022/05/23 10:55:19;;;;;;;4.60;2.50;;;23.00;85.00;;;;;;4951466;29;20419;-90
2022/05/23 10:58:30;;;;;;;5.40;2.43;;;23.00;85.40;;;;;;4950657;29;20924;-89
2022/05/23 11:01:23;;;;;;;7.67;2.40;;;22.90;84.40;;;;;;4951234;29;20437;-89
2022/05/23 11:04:01;;;;;;;6.50;2.80;;;22.90;83.30;;;;;;4953352;29;20780;-89
2022/05/23 11:06:50;;;;;;;4.63;2.53;;;22.90;84.80;;;;;;4938826;29;20442;-90
2022/05/23 11:09:41;;;;;;;3.50;2.00;;;22.90;83.20;;;;;;4938207;29;20411;-90
2022/05/23 11:12:30;;;;;;;4.70;2.33;;;22.90;84.30;;;;;;4938496;29;20937;-89
2022/05/23 11:15:13;;;;;;;4.53;2.57;;;22.90;82.90;;;;;;4954211;29;20466;-89
2022/05/23 11:18:09;;;;;;;4.57;2.80;;;23.00;82.30;;;;;;4938642;29;20816;-90
2022/05/23 11:20:39;;;;;;;4.20;2.50;;;23.00;81.70;;;;;;4939159;29;20462;-89
2022/05/23 11:23:27;;;;;;;3.97;2.40;;;23.00;83.90;;;;;;4956614;28;20495;-89
2022/05/23 11:25:58;;;;;;;3.50;2.77;;;23.00;82.30;;;;;;4954961;28;20434;-89
2022/05/23 11:34:47;;;;;;;3.33;2.50;;;23.30;84.80;;;;;;4955545;28;20445;-90
2022/05/23 11:40:06;;;;;;;3.70;2.23;;;23.50;83.80;;;;;;4955875;28;20457;-89
2022/05/23 11:42:35;;;;;;;5.60;2.60;;;23.60;82.10;;;;;;4970318;28;20425;-90
2022/05/23 11:47:54;;;;;;;4.77;2.53;;;23.80;83.10;;;;;;4955121;29;20402;-89
2022/05/23 11:50:26;;;;;;;7.37;3.00;;;23.80;81.60;;;;;;4970257;28;20419;-89
2022/05/23 11:53:27;;;;;;;6.00;2.93;;;23.80;82.20;;;;;;4969792;28;20434;-88
2022/05/23 11:55:53;;;;;;;5.73;2.73;;;23.80;82.50;;;;;;4937198;29;20498;-90
2022/05/23 11:58:36;;;;;;;3.70;2.40;;;23.80;82.20;;;;;;4953242;29;20479;-89
2022/05/23 12:01:07;;;;;;;5.70;2.17;;;23.90;81.90;;;;;;4938555;29;20439;-89
2022/05/23 12:03:51;;;;;;;5.40;3.00;;;23.90;83.50;;;;;;4954116;29;20423;-89
2022/05/23 12:06:23;;;;;;;4.20;2.60;;;24.10;82.80;;;;;;4972249;28;20559;-90
2022/05/23 12:08:57;;;;;;;3.43;2.10;;;24.20;82.30;;;;;;4971706;28;21108;-92
2022/05/23 12:11:26;;;;;;;4.37;2.00;;;24.30;83.50;;;;;;4971792;28;20517;-90
2022/05/23 12:13:58;;;;;;;3.20;2.40;;;24.50;81.80;;;;;;4971284;28;20466;-89
2022/05/23 12:16:37;;;;;;;3.50;2.60;;;24.60;82.90;;;;;;4971966;28;20828;-88
2022/05/23 12:19:23;;;;;;;3.67;2.60;;;24.70;81.40;;;;;;4972346;28;20443;-89
2022/05/23 12:21:50;;;;;;;4.43;2.13;;;24.80;81.80;;;;;;4971776;28;20419;-89
2022/05/23 12:24:29;;;;;;;4.00;2.33;;;24.90;79.60;;;;;;4971757;28;20416;-89
2022/05/23 12:26:57;;;;;;;4.70;2.73;;;25.00;81.30;;;;;;4956448;29;21040;-88
2022/05/23 12:29:33;;;;;;;9.33;3.00;;;25.00;80.50;;;;;;4955380;28;20415;-88
2022/05/23 12:32:05;;;;;;;4.27;2.43;;;25.00;79.80;;;;;;4955569;28;20438;-89
2022/05/23 12:34:33;;;;;;;5.07;2.70;;;24.90;78.60;;;;;;4955085;29;20851;-88
2022/05/23 12:37:00;;;;;;;7.43;2.50;;;24.80;80.10;;;;;;4954841;28;20831;-88
2022/05/23 12:39:44;;;;;;;3.93;2.43;;;24.70;80.50;;;;;;4954997;29;20481;-89
2022/05/23 12:42:22;;;;;;;3.30;2.60;;;24.60;81.10;;;;;;4954953;29;20434;-88
2022/05/23 12:44:57;;;;;;;4.47;2.40;;;24.50;80.90;;;;;;4955232;29;20432;-88
2022/05/23 12:47:32;;;;;;;3.77;2.80;;;24.30;80.10;;;;;;4955347;28;21018;-88
2022/05/23 12:50:14;;;;;;;5.60;2.60;;;24.20;80.80;;;;;;4951945;29;20450;-88
2022/05/23 12:53:01;;;;;;;5.50;2.47;;;24.20;79.90;;;;;;4952037;28;20412;-88
2022/05/23 12:55:35;;;;;;;4.37;2.47;;;24.10;79.30;;;;;;4951799;29;20467;-88
2022/05/23 12:58:24;;;;;;;2.50;2.30;;;24.00;79.30;;;;;;4952000;29;20419;-87
2022/05/23 13:00:59;;;;;;;6.53;2.83;;;24.00;78.70;;;;;;4951142;28;20408;-87
2022/05/23 13:03:27;;;;;;;6.30;3.30;;;24.00;78.20;;;;;;4951387;29;20973;-88
2022/05/23 13:06:04;;;;;;;2.70;2.30;;;23.90;77.20;;;;;;4951547;29;21032;-88
2022/05/23 13:08:45;;;;;;;3.27;2.40;;;23.80;77.20;;;;;;4951859;29;20463;-87
2022/05/23 13:11:19;;;;;;;2.97;2.30;;;23.80;77.80;;;;;;4951496;29;20454;-88
2022/05/23 13:13:47;;;;;;;5.70;2.63;;;23.80;78.60;;;;;;4951857;29;20950;-88
2022/05/23 13:16:24;;;;;;;2.80;2.50;;;23.90;79.50;;;;;;4951051;28;20474;-87
2022/05/23 13:27:10;;;;;;;6.57;2.60;;;23.90;77.50;;;;;;4936314;29;20442;-88
2022/05/23 13:29:36;;;;;;;6.47;2.97;;;23.80;79.50;;;;;;4951437;28;20427;-90
2022/05/23 13:32:11;;;;;;;4.60;3.00;;;23.80;79.00;;;;;;4951275;29;20427;-89
2022/05/23 13:34:43;;;;;;;4.23;2.83;;;23.70;78.90;;;;;;4951239;29;20498;-87
2022/05/23 13:37:09;;;;;;;4.60;2.87;;;23.70;79.80;;;;;;4950793;29;20566;-88
2022/05/23 13:39:46;;;;;;;6.63;3.07;;;23.60;79.30;;;;;;4951292;29;20423;-89
2022/05/23 13:42:22;;;;;;;4.97;2.40;;;23.50;79.30;;;;;;4951187;29;21112;-87
2022/05/23 13:44:49;;;;;;;7.93;3.60;;;23.40;79.10;;;;;;4951005;29;20420;-88
2022/05/23 13:47:24;;;;;;;6.37;2.70;;;23.30;78.20;;;;;;4950927;28;21084;-88
2022/05/23 13:49:58;;;;;;;6.00;3.00;;;23.30;77.70;;;;;;4950726;29;20920;-88
2022/05/23 13:52:35;;;;;;;4.10;2.70;;;23.20;79.90;;;;;;4951165;29;21013;-89
2022/05/23 13:55:07;;;;;;;4.97;2.83;;;23.20;79.70;;;;;;4950848;28;20965;-88
2022/05/23 13:57:43;;;;;;;3.10;2.50;;;23.10;79.40;;;;;;4950643;29;20792;-87
2022/05/23 14:00:28;;;;;;;4.57;2.57;;;23.00;79.50;;;;;;4951203;28;20415;-88
2022/05/23 14:02:57;;;;;;;5.90;2.67;;;22.90;79.80;;;;;;4951507;28;20435;-88
2022/05/23 14:05:26;;;;;;;6.43;2.97;;;22.80;81.20;;;;;;4965414;28;20477;-89
2022/05/23 14:07:54;;;;;;;5.93;2.30;;;22.80;80.90;;;;;;4951377;29;20999;-87
2022/05/23 14:10:27;;;;;;;4.80;3.00;;;22.70;81.50;;;;;;4942561;28;20443;-88
2022/05/23 14:12:55;;;;;;;5.30;2.77;;;22.60;82.40;;;;;;4962812;28;20918;-88
2022/05/23 14:15:31;;;;;;;3.17;2.47;;;22.60;82.10;;;;;;4948191;29;20503;-89